WAPP

Pattimura , Ambon Airport

Ambon, Indonesia
TAF WAPP 192300Z 2000/2024 16005KT 9999 SCT019 BECMG 2010/2012 34005KT
Issued Valid From Valid To
Sep-19 @ 23:00 UTC
(2 hours ago)
Sep-20 @ 00:00 UTC
(an hour ago)
Sep-21 @ 00:00 UTC
(in 23 hours)
Sep-20 @ 00:00 to Sep-20 @ 10:00
TAF WAPP 192300Z 2000/2024 16005KT 9999 SCT019
Wind Visibility Clouds
160° at 5 knots 10,000+ meters
  • Scattered at 1,900' AGL
Becoming Sep-20 @ 10:00 to Sep-21 @ 00:00
BECMG 2010/2012 34005KT
Wind Visibility Clouds
340° at 5 knots 10,000+ meters
  • Scattered at 1,900' AGL
TAF WAPP 192300Z 2000/2024 16005KT 9999 SCT019 BECMG 2010/2012 34005KT
Issued Sep-19 @ 23:00 UTC
(2 hours ago)
Valid From Sep-20 @ 00:00 UTC
(an hour ago)
Valid To Sep-21 @ 00:00 UTC
(in 23 hours)
Sep-20 @ 00:00 - Sep-20 @ 10:00
Wind Visibility
160° at 5 knots 10,000+ meters
Clouds
  • Scattered at 1,900' AGL
Becoming Sep-20 @ 10:00 - Sep-21 @ 00:00
Wind Visibility
340° at 5 knots 10,000+ meters
Clouds
  • Scattered at 1,900' AGL